createdAt,value
2019-01-20T00:00:08.786Z,81.63
2019-01-20T00:02:36.302Z,81.82
2019-01-20T00:05:04.634Z,82.03
2019-01-20T00:07:32.125Z,82.33
2019-01-20T00:09:59.483Z,82.80
2019-01-20T00:12:26.835Z,83.10
2019-01-20T00:14:54.254Z,83.14
2019-01-20T00:17:21.612Z,83.46
2019-01-20T00:19:49.051Z,83.68
2019-01-20T00:22:16.455Z,83.70
2019-01-20T00:24:43.934Z,83.88
2019-01-20T00:27:11.308Z,83.90
2019-01-20T00:29:38.811Z,83.98
2019-01-20T00:32:06.218Z,83.86
2019-01-20T00:34:33.619Z,83.69
2019-01-20T00:37:01.046Z,83.71
2019-01-20T00:39:28.718Z,83.48
2019-01-20T00:41:56.198Z,83.45
2019-01-20T00:44:23.593Z,83.56
2019-01-20T00:46:50.955Z,83.68
2019-01-20T00:49:18.356Z,83.76
2019-01-20T00:51:45.722Z,83.78
2019-01-20T00:54:13.126Z,83.59
2019-01-20T00:56:40.522Z,83.16
2019-01-20T00:59:07.955Z,82.88
2019-01-20T01:01:35.439Z,82.25
2019-01-20T01:04:02.983Z,82.19
2019-01-20T01:06:30.481Z,81.88
2019-01-20T01:08:58.129Z,81.82
2019-01-20T01:11:31.554Z,81.31
2019-01-20T01:13:54.780Z,81.17
2019-01-20T01:16:22.177Z,81.18
2019-01-20T01:18:49.610Z,81.14
2019-01-20T01:21:16.969Z,80.91
2019-01-20T01:23:44.368Z,81.12
2019-01-20T01:26:11.729Z,81.15
2019-01-20T01:28:39.187Z,81.27
2019-01-20T01:31:06.548Z,81.51
2019-01-20T01:33:33.959Z,81.59
2019-01-20T01:36:01.568Z,81.47
2019-01-20T01:38:28.934Z,81.43
2019-01-20T01:40:56.343Z,81.46
2019-01-20T01:43:24.045Z,81.46
2019-01-20T01:45:51.416Z,81.47
2019-01-20T01:48:18.768Z,81.42
2019-01-20T01:50:46.194Z,81.29
2019-01-20T01:53:13.563Z,81.17
2019-01-20T01:55:40.914Z,81.14
2019-01-20T01:58:08.335Z,81.18
2019-01-20T02:00:35.842Z,81.25
2019-01-20T02:03:03.579Z,81.18
2019-01-20T02:05:30.961Z,81.25
2019-01-20T02:07:58.312Z,81.36
2019-01-20T02:10:25.713Z,81.22
2019-01-20T02:12:53.070Z,81.39
2019-01-20T02:15:20.993Z,81.32
2019-01-20T02:17:49.011Z,81.52
2019-01-20T02:20:18.065Z,81.62
2019-01-20T02:22:45.685Z,81.56
2019-01-20T02:25:13.391Z,81.12
2019-01-20T02:27:40.817Z,81.11
2019-01-20T02:30:10.645Z,81.12
2019-01-20T02:32:38.370Z,81.14
2019-01-20T02:35:06.199Z,81.20
2019-01-20T02:37:33.602Z,81.76
2019-01-20T02:40:01.079Z,82.14
2019-01-20T02:42:28.434Z,82.21
2019-01-20T02:44:55.819Z,82.26
2019-01-20T02:47:23.324Z,82.36
2019-01-20T02:49:50.690Z,82.40
2019-01-20T02:52:18.056Z,82.37
2019-01-20T02:54:45.450Z,82.16
2019-01-20T02:57:12.843Z,82.20
2019-01-20T02:59:40.203Z,82.59
2019-01-20T03:02:07.592Z,82.73
2019-01-20T03:04:34.980Z,82.92
2019-01-20T03:07:02.356Z,83.12
2019-01-20T03:09:32.346Z,83.25
2019-01-20T03:12:03.559Z,83.41
2019-01-20T03:14:28.986Z,83.19
2019-01-20T03:16:56.330Z,83.17
2019-01-20T03:19:23.760Z,83.03
2019-01-20T03:21:51.174Z,82.92
2019-01-20T03:24:18.519Z,82.89
2019-01-20T03:26:45.890Z,83.12
2019-01-20T03:29:13.276Z,83.51
2019-01-20T03:31:40.661Z,83.87
2019-01-20T03:34:08.065Z,84.30
2019-01-20T03:36:35.427Z,84.36
2019-01-20T03:39:04.620Z,84.37
2019-01-20T03:41:31.978Z,84.45
2019-01-20T03:43:59.355Z,84.50
2019-01-20T03:46:26.754Z,84.50
2019-01-20T03:48:54.135Z,84.74
2019-01-20T03:51:21.475Z,84.90
2019-01-20T03:53:48.866Z,85.03
2019-01-20T03:56:16.464Z,85.05
2019-01-20T03:58:43.827Z,84.73
2019-01-20T04:01:11.185Z,84.54
2019-01-20T04:03:38.719Z,84.15
2019-01-20T04:06:06.088Z,84.28
2019-01-20T04:08:33.473Z,84.26
2019-01-20T04:11:00.895Z,84.11
2019-01-20T04:13:28.321Z,83.75
2019-01-20T04:15:55.672Z,83.07
2019-01-20T04:18:23.038Z,83.17
2019-01-20T04:20:50.390Z,83.32
2019-01-20T04:23:17.752Z,82.78
2019-01-20T04:25:46.795Z,82.90
2019-01-20T04:28:14.174Z,83.31
2019-01-20T04:30:41.630Z,82.90
2019-01-20T04:33:09.023Z,81.92
2019-01-20T04:35:36.398Z,82.16
2019-01-20T04:38:03.809Z,82.53
2019-01-20T04:40:31.192Z,82.79
2019-01-20T04:42:58.559Z,83.18
2019-01-20T04:45:25.940Z,83.61
2019-01-20T04:47:53.306Z,83.62
2019-01-20T04:50:21.718Z,83.36
2019-01-20T04:52:49.078Z,83.24
2019-01-20T04:55:16.460Z,83.01
2019-01-20T04:57:47.706Z,83.27
2019-01-20T05:00:16.176Z,83.21
2019-01-20T05:02:43.520Z,83.52
2019-01-20T05:05:10.874Z,83.67
2019-01-20T05:07:38.271Z,83.81
2019-01-20T05:10:06.795Z,83.99
2019-01-20T05:12:37.844Z,84.38
2019-01-20T05:15:04.141Z,84.44
2019-01-20T05:17:31.835Z,84.60
2019-01-20T05:19:59.183Z,84.62
2019-01-20T05:22:26.676Z,84.57
2019-01-20T05:24:54.043Z,84.58
2019-01-20T05:27:21.459Z,84.57
2019-01-20T05:29:49.126Z,84.66
2019-01-20T05:32:16.566Z,84.77
2019-01-20T05:34:43.915Z,84.76
2019-01-20T05:37:11.297Z,84.83
2019-01-20T05:39:38.677Z,84.06
2019-01-20T05:42:06.111Z,83.84
2019-01-20T05:44:33.478Z,83.90
2019-01-20T05:47:01.121Z,84.03
2019-01-20T05:49:28.492Z,84.15
2019-01-20T05:51:55.943Z,84.23
2019-01-20T05:54:23.340Z,84.31
2019-01-20T05:56:50.834Z,84.33
2019-01-20T05:59:18.188Z,84.10
2019-01-20T06:01:45.852Z,84.25
2019-01-20T06:04:13.203Z,84.46
2019-01-20T06:06:40.545Z,84.61
2019-01-20T06:09:07.958Z,84.93
2019-01-20T06:11:35.315Z,85.10
2019-01-20T06:14:02.658Z,85.23
2019-01-20T06:16:30.054Z,85.33
2019-01-20T06:18:57.410Z,85.58
2019-01-20T06:21:25.094Z,85.59
2019-01-20T06:23:52.463Z,85.38
2019-01-20T06:26:19.823Z,85.04
2019-01-20T06:28:47.283Z,84.82
2019-01-20T06:31:14.710Z,84.70
2019-01-20T06:33:42.070Z,84.64
2019-01-20T06:36:09.470Z,84.50
2019-01-20T06:38:36.908Z,84.25
2019-01-20T06:41:04.334Z,84.07
2019-01-20T06:43:31.711Z,84.14
2019-01-20T06:45:59.091Z,84.18
2019-01-20T06:48:26.499Z,84.27
2019-01-20T06:50:53.846Z,84.27
2019-01-20T06:53:21.265Z,84.24
2019-01-20T06:55:48.791Z,84.41
2019-01-20T06:58:16.143Z,84.59
2019-01-20T07:00:43.525Z,84.79
2019-01-20T07:03:10.964Z,84.72
2019-01-20T07:05:38.302Z,84.62
2019-01-20T07:08:05.719Z,84.59
2019-01-20T07:10:33.342Z,84.60
2019-01-20T07:13:00.950Z,84.42
2019-01-20T07:15:28.324Z,84.34
2019-01-20T07:17:55.698Z,84.30
2019-01-20T07:20:23.160Z,84.29
2019-01-20T07:22:50.545Z,84.17
2019-01-20T07:25:17.898Z,84.01
2019-01-20T07:27:45.247Z,83.77
2019-01-20T07:30:16.759Z,83.80
2019-01-20T07:32:44.174Z,83.64
2019-01-20T07:35:12.981Z,83.38
2019-01-20T07:37:40.361Z,83.17
2019-01-20T07:40:08.694Z,82.95
2019-01-20T07:42:36.183Z,82.61
2019-01-20T07:45:04.750Z,82.40
2019-01-20T07:47:32.123Z,82.10
2019-01-20T07:49:59.596Z,81.75
2019-01-20T07:52:26.948Z,81.66
2019-01-20T07:54:54.338Z,81.13
2019-01-20T07:57:21.731Z,80.54
2019-01-20T07:59:49.103Z,80.27
2019-01-20T08:02:16.505Z,80.01
2019-01-20T08:04:43.905Z,79.51
2019-01-20T08:07:11.463Z,79.10
2019-01-20T08:09:38.834Z,78.84
2019-01-20T08:12:06.257Z,78.12
2019-01-20T08:14:33.759Z,77.41
2019-01-20T08:17:01.186Z,76.32
2019-01-20T08:19:28.562Z,75.33
2019-01-20T08:21:55.981Z,74.21
2019-01-20T08:24:23.374Z,73.76
2019-01-20T08:26:50.815Z,73.65
2019-01-20T08:29:18.297Z,73.06
2019-01-20T08:31:45.802Z,72.33
2019-01-20T08:34:13.181Z,72.49
2019-01-20T08:36:40.706Z,72.28
2019-01-20T08:39:08.163Z,72.48
2019-01-20T08:41:35.597Z,72.22
2019-01-20T08:44:03.443Z,72.43
2019-01-20T08:46:35.987Z,72.77
2019-01-20T08:49:03.920Z,73.55
2019-01-20T08:51:31.844Z,73.90
2019-01-20T08:53:59.310Z,74.08
2019-01-20T08:56:26.814Z,74.42
2019-01-20T08:58:54.227Z,74.40
2019-01-20T09:01:21.648Z,74.59
2019-01-20T09:03:49.022Z,75.02
2019-01-20T09:06:16.560Z,74.17
2019-01-20T09:08:44.077Z,73.25
2019-01-20T09:11:11.426Z,73.22
2019-01-20T09:13:39.919Z,72.75
2019-01-20T09:16:07.619Z,72.51
2019-01-20T09:18:35.066Z,71.87
2019-01-20T09:21:02.490Z,71.46
2019-01-20T09:23:29.860Z,69.93
2019-01-20T09:25:57.235Z,68.96
2019-01-20T09:28:24.637Z,69.89
2019-01-20T09:30:52.000Z,69.91
2019-01-20T09:33:24.473Z,69.97
2019-01-20T09:35:48.740Z,70.03
2019-01-20T09:38:16.226Z,70.51
2019-01-20T09:40:43.621Z,70.23
2019-01-20T09:43:11.450Z,70.39
2019-01-20T09:45:39.214Z,70.03
2019-01-20T09:48:06.762Z,69.75
2019-01-20T09:50:34.114Z,69.57
2019-01-20T09:53:01.515Z,68.73
2019-01-20T09:55:28.893Z,68.49
2019-01-20T09:57:56.486Z,68.38
2019-01-20T10:00:24.912Z,69.05
2019-01-20T10:02:52.423Z,69.42
2019-01-20T10:05:19.821Z,70.59
2019-01-20T10:07:47.295Z,71.32
2019-01-20T10:10:15.162Z,71.75
2019-01-20T10:12:42.534Z,72.31
2019-01-20T10:15:10.631Z,72.83
2019-01-20T10:17:38.012Z,73.25
2019-01-20T10:20:07.565Z,73.46
2019-01-20T10:22:34.947Z,73.55
2019-01-20T10:25:02.341Z,73.49
2019-01-20T10:27:29.806Z,73.23
2019-01-20T10:29:57.169Z,73.66
2019-01-20T10:32:24.609Z,73.91
2019-01-20T10:34:52.926Z,73.55
2019-01-20T10:37:20.274Z,72.97
2019-01-20T10:39:47.702Z,73.02
2019-01-20T10:42:15.202Z,73.08
2019-01-20T10:44:42.896Z,73.24
2019-01-20T10:47:10.387Z,73.01
2019-01-20T10:49:37.843Z,73.08
2019-01-20T10:52:05.242Z,72.71
2019-01-20T10:54:32.776Z,72.44
2019-01-20T10:57:00.278Z,72.62
2019-01-20T10:59:27.724Z,72.68
2019-01-20T11:01:55.158Z,72.09
2019-01-20T11:04:22.590Z,71.95
2019-01-20T11:06:50.011Z,71.48
2019-01-20T11:09:17.392Z,71.85
2019-01-20T11:11:44.838Z,71.27
2019-01-20T11:14:12.310Z,71.34
2019-01-20T11:16:39.839Z,71.62
2019-01-20T11:19:07.270Z,71.60
2019-01-20T11:21:34.675Z,71.67
2019-01-20T11:24:02.138Z,71.89
2019-01-20T11:26:29.693Z,72.46
2019-01-20T11:28:57.072Z,72.67
2019-01-20T11:31:24.552Z,72.55
2019-01-20T11:33:52.062Z,72.80
2019-01-20T11:36:19.453Z,72.74
2019-01-20T11:38:46.858Z,72.06
2019-01-20T11:41:14.366Z,71.84
2019-01-20T11:43:41.765Z,71.52
2019-01-20T11:46:09.177Z,71.43
2019-01-20T11:48:36.558Z,71.32
2019-01-20T11:51:03.981Z,70.57
2019-01-20T11:53:31.326Z,70.09
2019-01-20T11:55:58.738Z,69.46
2019-01-20T11:58:26.265Z,69.62
2019-01-20T12:00:53.640Z,69.50
2019-01-20T12:03:21.147Z,69.55
2019-01-20T12:05:48.643Z,70.10
2019-01-20T12:08:16.075Z,70.77
2019-01-20T12:10:43.473Z,70.74
2019-01-20T12:13:12.699Z,70.84
2019-01-20T12:15:40.195Z,70.93
2019-01-20T12:18:07.615Z,70.64
2019-01-20T12:20:35.186Z,70.31
2019-01-20T12:23:02.721Z,70.99
2019-01-20T12:25:30.115Z,70.90
2019-01-20T12:27:57.533Z,71.33
2019-01-20T12:30:25.720Z,71.31
2019-01-20T12:32:53.148Z,71.67
2019-01-20T12:35:20.589Z,72.01
2019-01-20T12:37:47.980Z,72.02
2019-01-20T12:40:17.300Z,71.85
2019-01-20T12:42:44.743Z,71.19
2019-01-20T12:45:12.131Z,71.59
2019-01-20T12:47:39.562Z,71.12
2019-01-20T12:50:08.106Z,70.77
2019-01-20T12:52:35.606Z,70.21
2019-01-20T12:55:03.543Z,69.88
2019-01-20T12:57:31.008Z,69.36
2019-01-20T12:59:58.503Z,69.92
2019-01-20T13:02:26.010Z,70.42
2019-01-20T13:04:56.445Z,70.33
2019-01-20T13:07:22.674Z,69.79
2019-01-20T13:09:50.149Z,69.71
2019-01-20T13:12:17.543Z,69.16
2019-01-20T13:14:44.937Z,68.83
2019-01-20T13:17:12.358Z,68.24
2019-01-20T13:19:39.759Z,68.29
2019-01-20T13:22:07.155Z,67.54
2019-01-20T13:24:34.611Z,68.13
2019-01-20T13:27:01.997Z,69.16
2019-01-20T13:29:29.405Z,69.19
2019-01-20T13:31:56.794Z,69.44
2019-01-20T13:34:24.266Z,69.48
2019-01-20T13:36:51.640Z,69.22
2019-01-20T13:39:19.142Z,68.29
2019-01-20T13:41:46.592Z,68.44
2019-01-20T13:44:14.039Z,70.26
2019-01-20T13:46:41.480Z,70.87
2019-01-20T13:49:08.895Z,71.40
2019-01-20T13:51:36.351Z,71.38
2019-01-20T13:54:03.995Z,71.56
2019-01-20T13:56:31.410Z,71.06
2019-01-20T13:58:58.892Z,72.00
2019-01-20T14:01:26.423Z,73.32
2019-01-20T14:03:53.813Z,73.17
2019-01-20T14:06:21.227Z,73.37
2019-01-20T14:08:48.603Z,73.68
2019-01-20T14:11:16.015Z,73.82
2019-01-20T14:13:43.513Z,73.67
2019-01-20T14:16:10.897Z,73.77
2019-01-20T14:18:45.034Z,73.32
2019-01-20T14:21:07.561Z,73.43
2019-01-20T14:23:34.999Z,73.40
2019-01-20T14:26:02.422Z,73.48
2019-01-20T14:28:29.807Z,73.52
2019-01-20T14:30:58.015Z,73.45
2019-01-20T14:33:25.590Z,73.71
2019-01-20T14:35:53.122Z,73.40
2019-01-20T14:38:20.528Z,73.68
2019-01-20T14:40:48.063Z,73.10
2019-01-20T14:43:15.542Z,72.71
2019-01-20T14:45:42.958Z,73.17
2019-01-20T14:48:10.351Z,73.29
2019-01-20T14:50:37.831Z,73.83
2019-01-20T14:53:05.237Z,73.70
2019-01-20T14:55:32.747Z,73.67
2019-01-20T14:58:00.110Z,73.71
2019-01-20T15:00:31.938Z,73.76
2019-01-20T15:02:59.410Z,73.90
2019-01-20T15:05:26.900Z,73.65
2019-01-20T15:07:54.426Z,73.76
2019-01-20T15:10:21.906Z,73.91
2019-01-20T15:12:50.265Z,74.49
2019-01-20T15:15:19.201Z,74.85
2019-01-20T15:17:46.728Z,75.11
2019-01-20T15:20:14.469Z,75.07
2019-01-20T15:22:41.870Z,75.27
2019-01-20T15:25:09.645Z,74.85
2019-01-20T15:27:38.074Z,74.63
2019-01-20T15:30:08.225Z,75.03
2019-01-20T15:32:35.698Z,75.05
2019-01-20T15:35:03.445Z,75.41
2019-01-20T15:37:30.838Z,75.45
2019-01-20T15:39:58.191Z,76.11
2019-01-20T15:42:25.589Z,76.52
2019-01-20T15:44:52.997Z,77.04
2019-01-20T15:47:20.483Z,77.38
2019-01-20T15:49:47.953Z,77.51
2019-01-20T15:52:15.346Z,77.80
2019-01-20T15:54:42.760Z,78.01
2019-01-20T15:57:10.230Z,78.25
2019-01-20T15:59:37.613Z,78.42
2019-01-20T16:02:05.061Z,78.45
2019-01-20T16:04:32.514Z,78.97
2019-01-20T16:06:59.948Z,79.50
2019-01-20T16:09:27.319Z,79.46
2019-01-20T16:11:54.846Z,79.57
2019-01-20T16:14:22.329Z,79.68
2019-01-20T16:16:49.817Z,79.56
2019-01-20T16:19:17.595Z,79.62
2019-01-20T16:21:45.052Z,79.66
2019-01-20T16:24:12.539Z,79.68
2019-01-20T16:26:41.561Z,80.01
2019-01-20T16:29:09.157Z,80.06
2019-01-20T16:31:39.879Z,80.48
2019-01-20T16:34:05.897Z,80.50
2019-01-20T16:36:33.341Z,80.28
2019-01-20T16:39:00.880Z,80.65
2019-01-20T16:41:28.364Z,81.09
2019-01-20T16:43:55.756Z,81.11
2019-01-20T16:46:23.226Z,81.04
2019-01-20T16:48:50.613Z,81.16
2019-01-20T16:51:18.044Z,80.66
2019-01-20T16:53:46.709Z,81.17
2019-01-20T16:56:14.218Z,81.43
2019-01-20T16:58:41.625Z,81.40
2019-01-20T17:01:09.004Z,81.27
2019-01-20T17:03:36.512Z,81.51
2019-01-20T17:06:03.965Z,81.90
2019-01-20T17:08:31.438Z,81.82
2019-01-20T17:10:58.939Z,81.95
2019-01-20T17:13:26.440Z,82.09
2019-01-20T17:15:53.947Z,82.35
2019-01-20T17:18:21.687Z,82.71
2019-01-20T17:20:49.245Z,82.88
2019-01-20T17:23:16.650Z,83.21
2019-01-20T17:25:44.318Z,83.37
2019-01-20T17:28:11.681Z,83.43
2019-01-20T17:30:39.676Z,83.69
2019-01-20T17:33:07.502Z,83.71
2019-01-20T17:35:35.027Z,84.12
2019-01-20T17:38:02.382Z,84.44
2019-01-20T17:40:29.916Z,84.63
2019-01-20T17:42:57.484Z,84.83
2019-01-20T17:45:26.141Z,85.05
2019-01-20T17:47:53.508Z,85.23
2019-01-20T17:50:25.228Z,85.66
2019-01-20T17:52:53.079Z,86.32
2019-01-20T17:55:20.590Z,86.62
2019-01-20T17:57:48.119Z,86.88
2019-01-20T18:00:17.254Z,87.06
2019-01-20T18:02:44.740Z,87.12
2019-01-20T18:05:12.731Z,86.97
2019-01-20T18:07:40.138Z,86.84
2019-01-20T18:10:09.121Z,86.39
2019-01-20T18:12:36.536Z,86.46
2019-01-20T18:15:04.592Z,86.72
2019-01-20T18:17:31.979Z,86.60
2019-01-20T18:19:59.440Z,86.60
2019-01-20T18:22:27.129Z,86.66
2019-01-20T18:24:54.555Z,86.47
2019-01-20T18:27:21.893Z,86.36
2019-01-20T18:29:49.298Z,86.30
2019-01-20T18:32:16.675Z,86.35
2019-01-20T18:34:44.174Z,86.16
2019-01-20T18:37:11.558Z,86.24
2019-01-20T18:39:38.954Z,86.48
2019-01-20T18:42:06.512Z,86.70
2019-01-20T18:44:34.001Z,86.69
2019-01-20T18:47:01.378Z,86.65
2019-01-20T18:49:29.456Z,86.50
2019-01-20T18:51:57.018Z,86.60
2019-01-20T18:54:24.396Z,86.54
2019-01-20T18:56:52.079Z,86.81
2019-01-20T18:59:19.554Z,86.99
2019-01-20T19:01:46.955Z,86.95
2019-01-20T19:04:14.449Z,86.94
2019-01-20T19:06:41.914Z,86.91
2019-01-20T19:09:09.328Z,86.72
2019-01-20T19:11:36.949Z,86.57
2019-01-20T19:14:04.405Z,86.22
2019-01-20T19:16:31.828Z,86.11
2019-01-20T19:18:59.275Z,85.90
2019-01-20T19:21:26.748Z,85.94
2019-01-20T19:23:54.153Z,85.62
2019-01-20T19:26:21.814Z,85.64
2019-01-20T19:28:49.299Z,85.39
2019-01-20T19:31:16.675Z,84.93
2019-01-20T19:33:44.093Z,84.93
2019-01-20T19:36:11.579Z,85.14
2019-01-20T19:38:39.117Z,85.19
2019-01-20T19:41:06.663Z,85.14
2019-01-20T19:43:34.151Z,85.08
2019-01-20T19:46:01.522Z,84.58
2019-01-20T19:48:29.025Z,84.63
2019-01-20T19:50:56.726Z,84.62
2019-01-20T19:53:24.130Z,84.70
2019-01-20T19:55:51.492Z,84.70
2019-01-20T19:58:18.926Z,84.71
2019-01-20T20:00:46.316Z,84.73
2019-01-20T20:03:13.854Z,84.73
2019-01-20T20:05:41.260Z,84.60
2019-01-20T20:08:08.648Z,85.08
2019-01-20T20:10:36.067Z,85.31
2019-01-20T20:13:03.608Z,85.40
2019-01-20T20:15:31.098Z,85.58
2019-01-20T20:17:58.618Z,85.72
2019-01-20T20:20:26.051Z,85.70
2019-01-20T20:22:53.671Z,85.67
2019-01-20T20:25:21.606Z,85.43
2019-01-20T20:27:49.175Z,85.29
2019-01-20T20:30:20.771Z,85.57
2019-01-20T20:32:48.222Z,85.68
2019-01-20T20:35:15.614Z,85.40
2019-01-20T20:37:43.106Z,85.21
2019-01-20T20:40:11.446Z,84.84
2019-01-20T20:42:39.099Z,84.66
2019-01-20T20:45:07.610Z,84.63
2019-01-20T20:47:34.982Z,84.69
2019-01-20T20:50:02.801Z,84.10
2019-01-20T20:52:30.220Z,84.02
2019-01-20T20:54:57.690Z,83.86
2019-01-20T20:57:25.080Z,83.63
2019-01-20T20:59:52.628Z,83.76
2019-01-20T21:02:20.466Z,83.72
2019-01-20T21:04:47.951Z,83.80
2019-01-20T21:07:15.353Z,83.51
2019-01-20T21:09:42.828Z,83.38
2019-01-20T21:12:10.282Z,83.64
2019-01-20T21:14:37.676Z,83.88
2019-01-20T21:17:05.116Z,83.54
2019-01-20T21:19:32.545Z,83.61
2019-01-20T21:22:00.032Z,84.10
2019-01-20T21:24:28.196Z,84.33
2019-01-20T21:26:55.746Z,84.38
2019-01-20T21:29:23.124Z,84.31
2019-01-20T21:31:50.577Z,83.96
2019-01-20T21:34:18.020Z,83.48
2019-01-20T21:36:45.433Z,83.41
2019-01-20T21:39:13.170Z,83.51
2019-01-20T21:41:40.551Z,83.77
2019-01-20T21:44:07.933Z,83.52
2019-01-20T21:46:35.344Z,83.81
2019-01-20T21:49:03.152Z,83.54
2019-01-20T21:51:30.615Z,83.63
2019-01-20T21:53:57.991Z,83.91
2019-01-20T21:56:25.401Z,84.05
2019-01-20T21:58:52.840Z,84.20
2019-01-20T22:01:20.263Z,84.29
2019-01-20T22:03:47.781Z,84.09
2019-01-20T22:06:15.591Z,84.27
2019-01-20T22:08:43.045Z,84.34
2019-01-20T22:11:10.420Z,84.26
2019-01-20T22:13:39.432Z,84.13
2019-01-20T22:16:06.882Z,84.16
2019-01-20T22:18:34.219Z,83.93
2019-01-20T22:21:01.603Z,84.02
2019-01-20T22:23:28.994Z,84.31
2019-01-20T22:25:56.922Z,84.48
2019-01-20T22:28:24.469Z,84.51
2019-01-20T22:30:51.861Z,84.33
2019-01-20T22:33:19.345Z,84.16
2019-01-20T22:35:46.721Z,84.31
2019-01-20T22:38:14.090Z,84.47
2019-01-20T22:40:41.575Z,84.41
2019-01-20T22:43:09.032Z,84.25
2019-01-20T22:45:36.438Z,84.31
2019-01-20T22:48:03.845Z,84.56
2019-01-20T22:50:31.600Z,84.68
2019-01-20T22:52:59.118Z,84.63
2019-01-20T22:55:26.463Z,84.92
2019-01-20T22:57:54.134Z,84.82
2019-01-20T23:00:38.916Z,84.86
2019-01-20T23:03:06.462Z,85.16
2019-01-20T23:05:33.888Z,85.30
2019-01-20T23:08:01.317Z,85.50
2019-01-20T23:10:28.694Z,85.56
2019-01-20T23:12:56.378Z,85.59
2019-01-20T23:15:23.717Z,85.39
2019-01-20T23:17:51.082Z,85.62
2019-01-20T23:20:18.554Z,85.75
2019-01-20T23:22:46.006Z,85.97
2019-01-20T23:25:13.493Z,85.94
2019-01-20T23:27:40.962Z,85.74
2019-01-20T23:30:09.300Z,85.68
2019-01-20T23:32:36.712Z,85.61
2019-01-20T23:35:04.490Z,85.51
2019-01-20T23:37:31.830Z,85.58
2019-01-20T23:39:59.248Z,85.64
2019-01-20T23:42:26.618Z,85.60
2019-01-20T23:44:53.963Z,85.37
2019-01-20T23:47:21.346Z,85.47
2019-01-20T23:49:48.686Z,85.47
2019-01-20T23:52:16.038Z,85.48
2019-01-20T23:54:43.496Z,85.71
2019-01-20T23:57:10.842Z,85.70
2019-01-20T23:59:38.214Z,85.41
